createdAt,value
2019-03-26T00:00:30.809Z,84.08
2019-03-26T00:01:34.879Z,84.21
2019-03-26T00:02:39.048Z,84.36
2019-03-26T00:03:46.400Z,84.95
2019-03-26T00:04:49.571Z,84.78
2019-03-26T00:05:53.935Z,84.73
2019-03-26T00:06:58.071Z,84.63
2019-03-26T00:08:02.201Z,84.89
2019-03-26T00:09:06.497Z,84.87
2019-03-26T00:10:10.650Z,85.46
2019-03-26T00:11:17.747Z,85.57
2019-03-26T00:12:21.001Z,85.61
2019-03-26T00:13:25.186Z,85.86
2019-03-26T00:14:29.425Z,85.97
2019-03-26T00:15:33.528Z,85.67
2019-03-26T00:16:37.683Z,85.78
2019-03-26T00:17:41.812Z,85.99
2019-03-26T00:18:46.009Z,86.06
2019-03-26T00:19:50.247Z,85.81
2019-03-26T00:20:54.567Z,85.80
2019-03-26T00:21:58.812Z,85.33
2019-03-26T00:23:02.872Z,85.13
2019-03-26T00:24:07.136Z,84.81
2019-03-26T00:25:11.384Z,84.89
2019-03-26T00:26:15.502Z,84.75
2019-03-26T00:27:19.629Z,85.05
2019-03-26T00:28:24.775Z,85.08
2019-03-26T00:29:28.538Z,84.93
2019-03-26T00:30:32.897Z,84.85
2019-03-26T00:31:37.148Z,84.66
2019-03-26T00:32:41.139Z,84.41
2019-03-26T00:33:45.295Z,84.29
2019-03-26T00:34:49.461Z,84.22
2019-03-26T00:35:56.548Z,84.11
2019-03-26T00:37:00.813Z,84.22
2019-03-26T00:38:04.628Z,84.29
2019-03-26T00:39:08.968Z,83.98
2019-03-26T00:40:13.179Z,84.08
2019-03-26T00:41:17.247Z,83.73
2019-03-26T00:42:24.438Z,84.17
2019-03-26T00:43:27.640Z,83.97
2019-03-26T00:44:31.794Z,83.81
2019-03-26T00:45:35.972Z,84.10
2019-03-26T00:46:40.159Z,84.08
2019-03-26T00:47:44.315Z,83.77
2019-03-26T00:48:48.497Z,83.53
2019-03-26T00:49:52.822Z,83.50
2019-03-26T00:50:56.904Z,83.57
2019-03-26T00:52:01.042Z,83.52
2019-03-26T00:53:05.263Z,83.51
2019-03-26T00:54:09.452Z,83.50
2019-03-26T00:55:22.569Z,83.39
2019-03-26T00:56:17.983Z,83.51
2019-03-26T00:57:22.183Z,83.59
2019-03-26T00:58:26.473Z,83.58
2019-03-26T00:59:30.598Z,83.56
2019-03-26T01:00:34.756Z,83.70
2019-03-26T01:01:38.890Z,84.02
2019-03-26T01:02:43.052Z,83.83
2019-03-26T01:03:47.218Z,83.73
2019-03-26T01:04:51.404Z,83.97
2019-03-26T01:05:55.661Z,84.66
2019-03-26T01:06:59.771Z,84.43
2019-03-26T01:08:04.027Z,84.20
2019-03-26T01:09:08.272Z,84.24
2019-03-26T01:10:12.457Z,83.99
2019-03-26T01:11:16.677Z,84.20
2019-03-26T01:12:20.859Z,84.15
2019-03-26T01:13:25.078Z,84.16
2019-03-26T01:14:29.337Z,84.06
2019-03-26T01:15:33.424Z,83.96
2019-03-26T01:16:37.540Z,84.25
2019-03-26T01:17:41.807Z,84.28
2019-03-26T01:18:46.024Z,84.41
2019-03-26T01:19:50.164Z,84.36
2019-03-26T01:20:54.460Z,84.46
2019-03-26T01:21:58.604Z,84.38
2019-03-26T01:23:02.798Z,84.16
2019-03-26T01:24:07.085Z,84.36
2019-03-26T01:25:11.275Z,84.28
2019-03-26T01:26:15.385Z,84.14
2019-03-26T01:27:19.664Z,84.01
2019-03-26T01:28:23.867Z,84.10
2019-03-26T01:29:28.019Z,84.17
2019-03-26T01:30:32.155Z,84.30
2019-03-26T01:31:36.316Z,84.19
2019-03-26T01:32:40.458Z,84.13
2019-03-26T01:33:44.693Z,84.08
2019-03-26T01:34:48.811Z,83.79
2019-03-26T01:35:53.034Z,83.80
2019-03-26T01:36:57.233Z,83.83
2019-03-26T01:38:01.344Z,83.88
2019-03-26T01:39:05.573Z,83.69
2019-03-26T01:40:09.679Z,83.53
2019-03-26T01:41:13.980Z,83.64
2019-03-26T01:42:18.200Z,84.05
2019-03-26T01:43:22.264Z,83.66
2019-03-26T01:44:26.487Z,83.69
2019-03-26T01:45:30.669Z,83.61
2019-03-26T01:46:34.818Z,83.88
2019-03-26T01:47:39.203Z,83.81
2019-03-26T01:48:43.382Z,84.25
2019-03-26T01:49:47.616Z,84.32
2019-03-26T01:50:51.904Z,84.46
2019-03-26T01:51:55.936Z,84.38
2019-03-26T01:53:00.202Z,84.58
2019-03-26T01:54:04.307Z,84.39
2019-03-26T01:55:08.556Z,84.45
2019-03-26T01:56:12.703Z,84.34
2019-03-26T01:57:16.942Z,84.66
2019-03-26T01:58:21.178Z,84.65
2019-03-26T01:59:25.356Z,84.65
2019-03-26T02:00:29.580Z,84.81
2019-03-26T02:01:33.765Z,84.68
2019-03-26T02:02:38.012Z,84.61
2019-03-26T02:03:42.071Z,84.45
2019-03-26T02:04:58.832Z,84.65
2019-03-26T02:05:53.451Z,84.79
2019-03-26T02:06:57.683Z,84.98
2019-03-26T02:08:01.655Z,85.42
2019-03-26T02:09:08.751Z,85.34
2019-03-26T02:10:12.010Z,85.52
2019-03-26T02:11:16.233Z,85.49
2019-03-26T02:12:20.343Z,85.35
2019-03-26T02:13:24.437Z,85.91
2019-03-26T02:14:28.693Z,86.24
2019-03-26T02:15:32.790Z,86.45
2019-03-26T02:16:36.975Z,86.78
2019-03-26T02:17:42.137Z,86.81
2019-03-26T02:18:45.809Z,86.91
2019-03-26T02:19:49.957Z,87.10
2019-03-26T02:20:54.328Z,86.99
2019-03-26T02:21:58.422Z,86.69
2019-03-26T02:23:05.860Z,86.77
2019-03-26T02:24:09.025Z,86.82
2019-03-26T02:25:13.364Z,86.87
2019-03-26T02:26:17.486Z,87.05
2019-03-26T02:27:21.786Z,86.73
2019-03-26T02:28:25.849Z,86.32
2019-03-26T02:29:30.001Z,86.08
2019-03-26T02:30:37.292Z,85.91
2019-03-26T02:31:41.491Z,85.97
2019-03-26T02:32:46.249Z,86.08
2019-03-26T02:33:50.109Z,86.46
2019-03-26T02:34:54.297Z,86.70
2019-03-26T02:35:58.384Z,86.66
2019-03-26T02:37:02.570Z,86.73
2019-03-26T02:38:06.724Z,86.94
2019-03-26T02:39:10.983Z,86.93
2019-03-26T02:40:15.089Z,86.72
2019-03-26T02:41:19.376Z,86.79
2019-03-26T02:42:23.602Z,86.88
2019-03-26T02:43:27.808Z,86.92
2019-03-26T02:44:32.002Z,86.84
2019-03-26T02:45:36.020Z,86.55
2019-03-26T02:46:40.234Z,86.75
2019-03-26T02:47:44.620Z,86.67
2019-03-26T02:48:48.580Z,86.68
2019-03-26T02:49:52.725Z,86.51
2019-03-26T02:50:56.983Z,86.47
2019-03-26T02:52:01.221Z,86.68
2019-03-26T02:53:08.716Z,86.82
2019-03-26T02:54:09.668Z,86.69
2019-03-26T02:55:13.747Z,86.61
2019-03-26T02:56:17.955Z,86.80
2019-03-26T02:57:22.186Z,86.84
2019-03-26T02:58:26.377Z,86.76
2019-03-26T02:59:30.556Z,86.76
2019-03-26T03:00:34.722Z,86.58
2019-03-26T03:01:38.964Z,86.42
2019-03-26T03:02:43.117Z,86.46
2019-03-26T03:03:47.396Z,86.40
2019-03-26T03:04:51.563Z,86.41
2019-03-26T03:05:55.659Z,86.43
2019-03-26T03:06:59.843Z,86.34
2019-03-26T03:08:03.997Z,86.28
2019-03-26T03:09:08.185Z,86.06
2019-03-26T03:10:12.375Z,86.15
2019-03-26T03:11:16.472Z,86.04
2019-03-26T03:12:21.691Z,86.05
2019-03-26T03:13:28.440Z,85.94
2019-03-26T03:14:31.656Z,85.91
2019-03-26T03:15:35.818Z,85.79
2019-03-26T03:16:40.220Z,85.72
2019-03-26T03:17:44.432Z,85.64
2019-03-26T03:18:48.622Z,85.75
2019-03-26T03:19:52.732Z,85.61
2019-03-26T03:20:57.075Z,85.61
2019-03-26T03:22:01.254Z,85.55
2019-03-26T03:23:05.413Z,85.48
2019-03-26T03:24:09.614Z,85.50
2019-03-26T03:25:13.772Z,85.44
2019-03-26T03:26:18.037Z,85.46
2019-03-26T03:27:22.156Z,85.36
2019-03-26T03:28:26.467Z,85.32
2019-03-26T03:29:30.581Z,85.25
2019-03-26T03:30:34.842Z,85.14
2019-03-26T03:31:38.978Z,85.06
2019-03-26T03:32:43.169Z,85.17
2019-03-26T03:33:47.346Z,85.14
2019-03-26T03:34:51.470Z,85.13
2019-03-26T03:35:55.649Z,85.17
2019-03-26T03:37:00.823Z,85.08
2019-03-26T03:38:04.637Z,84.98
2019-03-26T03:39:08.803Z,84.90
2019-03-26T03:40:13.055Z,84.86
2019-03-26T03:41:17.218Z,84.84
2019-03-26T03:42:21.370Z,84.84
2019-03-26T03:43:25.675Z,84.82
2019-03-26T03:44:29.903Z,84.78
2019-03-26T03:45:34.018Z,84.74
2019-03-26T03:46:38.219Z,84.73
2019-03-26T03:47:42.511Z,84.67
2019-03-26T03:48:46.622Z,84.62
2019-03-26T03:49:50.892Z,84.75
2019-03-26T03:50:55.002Z,84.73
2019-03-26T03:51:59.143Z,84.74
2019-03-26T03:53:03.331Z,84.78
2019-03-26T03:54:07.524Z,84.78
2019-03-26T03:55:11.674Z,84.69
2019-03-26T03:56:15.837Z,84.65
2019-03-26T03:57:20.048Z,84.64
2019-03-26T03:58:24.285Z,84.56
2019-03-26T03:59:28.530Z,84.58
2019-03-26T04:00:32.645Z,84.58
2019-03-26T04:01:36.934Z,84.58
2019-03-26T04:02:42.058Z,84.73
2019-03-26T04:03:45.805Z,84.64
2019-03-26T04:04:49.980Z,84.81
2019-03-26T04:06:08.097Z,84.73
2019-03-26T04:06:58.980Z,84.86
2019-03-26T04:08:03.302Z,84.74
2019-03-26T04:09:07.334Z,84.76
2019-03-26T04:10:11.577Z,84.68
2019-03-26T04:11:15.789Z,84.66
2019-03-26T04:12:20.015Z,84.74
2019-03-26T04:13:24.148Z,84.66
2019-03-26T04:14:28.439Z,84.75
2019-03-26T04:15:35.057Z,84.71
2019-03-26T04:16:36.792Z,84.72
2019-03-26T04:17:41.075Z,84.63
2019-03-26T04:18:45.159Z,84.70
2019-03-26T04:19:49.407Z,84.74
2019-03-26T04:20:53.557Z,84.65
2019-03-26T04:21:57.870Z,84.67
2019-03-26T04:23:02.111Z,84.67
2019-03-26T04:24:06.371Z,84.59
2019-03-26T04:25:10.590Z,84.50
2019-03-26T04:26:14.694Z,84.56
2019-03-26T04:27:19.860Z,84.70
2019-03-26T04:28:23.713Z,84.55
2019-03-26T04:29:27.966Z,84.52
2019-03-26T04:30:32.046Z,84.68
2019-03-26T04:31:36.227Z,84.65
2019-03-26T04:32:40.534Z,84.60
2019-03-26T04:33:45.653Z,84.60
2019-03-26T04:34:49.415Z,84.73
2019-03-26T04:35:53.593Z,84.66
2019-03-26T04:36:57.843Z,84.78
2019-03-26T04:38:02.090Z,84.83
2019-03-26T04:39:09.295Z,84.74
2019-03-26T04:40:12.496Z,84.71
2019-03-26T04:41:16.815Z,84.64
2019-03-26T04:42:20.997Z,84.81
2019-03-26T04:43:25.217Z,84.64
2019-03-26T04:44:29.365Z,84.61
2019-03-26T04:45:33.671Z,84.58
2019-03-26T04:46:37.804Z,84.64
2019-03-26T04:47:42.000Z,84.62
2019-03-26T04:48:46.263Z,84.61
2019-03-26T04:49:50.372Z,84.59
2019-03-26T04:50:54.537Z,84.78
2019-03-26T04:51:58.846Z,84.66
2019-03-26T04:53:03.030Z,84.58
2019-03-26T04:54:08.192Z,84.64
2019-03-26T04:55:15.031Z,84.53
2019-03-26T04:56:18.291Z,84.56
2019-03-26T04:57:22.398Z,84.49
2019-03-26T04:58:26.536Z,84.51
2019-03-26T04:59:30.703Z,84.47
2019-03-26T05:00:35.034Z,84.37
2019-03-26T05:01:39.237Z,84.29
2019-03-26T05:02:43.432Z,84.27
2019-03-26T05:03:47.643Z,84.21
2019-03-26T05:04:51.835Z,84.19
2019-03-26T05:05:55.965Z,84.15
2019-03-26T05:07:00.102Z,84.12
2019-03-26T05:08:04.238Z,84.15
2019-03-26T05:09:08.501Z,84.16
2019-03-26T05:10:12.723Z,84.12
2019-03-26T05:11:16.853Z,84.14
2019-03-26T05:12:21.046Z,84.11
2019-03-26T05:13:25.331Z,84.06
2019-03-26T05:14:29.507Z,83.98
2019-03-26T05:15:33.630Z,83.97
2019-03-26T05:16:37.918Z,83.98
2019-03-26T05:17:42.222Z,83.91
2019-03-26T05:18:46.385Z,83.87
2019-03-26T05:19:50.615Z,83.85
2019-03-26T05:20:54.798Z,83.85
2019-03-26T05:21:59.042Z,83.84
2019-03-26T05:23:03.231Z,83.83
2019-03-26T05:24:07.500Z,83.82
2019-03-26T05:25:11.725Z,83.76
2019-03-26T05:26:15.983Z,83.78
2019-03-26T05:27:20.198Z,83.72
2019-03-26T05:28:24.419Z,83.78
2019-03-26T05:29:28.514Z,83.75
2019-03-26T05:30:33.271Z,83.75
2019-03-26T05:31:37.007Z,83.70
2019-03-26T05:32:41.134Z,83.71
2019-03-26T05:33:45.430Z,83.81
2019-03-26T05:34:49.546Z,83.78
2019-03-26T05:35:53.841Z,83.85
2019-03-26T05:36:58.063Z,83.88
2019-03-26T05:38:02.183Z,83.95
2019-03-26T05:39:06.411Z,83.89
2019-03-26T05:40:10.771Z,84.06
2019-03-26T05:41:14.910Z,84.16
2019-03-26T05:42:19.048Z,84.35
2019-03-26T05:43:23.132Z,84.55
2019-03-26T05:44:27.485Z,84.54
2019-03-26T05:45:31.628Z,84.71
2019-03-26T05:46:36.034Z,84.73
2019-03-26T05:47:40.087Z,84.72
2019-03-26T05:48:44.415Z,84.66
2019-03-26T05:49:48.492Z,84.81
2019-03-26T05:50:52.748Z,84.91
2019-03-26T05:51:56.981Z,84.79
2019-03-26T05:53:01.180Z,84.72
2019-03-26T05:54:05.394Z,84.87
2019-03-26T05:55:09.714Z,84.93
2019-03-26T05:56:13.866Z,84.77
2019-03-26T05:57:18.060Z,84.80
2019-03-26T05:58:22.254Z,84.87
2019-03-26T05:59:26.527Z,84.76
2019-03-26T06:00:30.614Z,84.70
2019-03-26T06:01:34.881Z,84.71
2019-03-26T06:02:39.108Z,84.65
2019-03-26T06:03:43.282Z,84.51
2019-03-26T06:04:47.531Z,84.39
2019-03-26T06:05:51.636Z,84.38
2019-03-26T06:07:04.711Z,84.33
2019-03-26T06:08:00.135Z,84.23
2019-03-26T06:09:04.361Z,84.17
2019-03-26T06:10:08.563Z,84.09
2019-03-26T06:11:12.793Z,83.96
2019-03-26T06:12:17.040Z,83.82
2019-03-26T06:13:21.283Z,83.73
2019-03-26T06:14:25.509Z,83.60
2019-03-26T06:15:29.828Z,83.64
2019-03-26T06:16:38.571Z,83.64
2019-03-26T06:17:38.258Z,83.62
2019-03-26T06:18:42.435Z,83.67
2019-03-26T06:19:46.572Z,83.67
2019-03-26T06:20:50.950Z,83.64
2019-03-26T06:21:55.108Z,83.56
2019-03-26T06:22:59.299Z,83.58
2019-03-26T06:24:03.491Z,83.45
2019-03-26T06:25:07.647Z,83.44
2019-03-26T06:26:11.926Z,83.33
2019-03-26T06:27:16.112Z,83.29
2019-03-26T06:28:20.315Z,83.35
2019-03-26T06:29:24.451Z,83.34
2019-03-26T06:30:28.722Z,83.33
2019-03-26T06:31:32.813Z,83.43
2019-03-26T06:32:37.155Z,83.48
2019-03-26T06:33:41.280Z,83.42
2019-03-26T06:34:45.425Z,83.40
2019-03-26T06:35:49.698Z,83.32
2019-03-26T06:36:53.794Z,83.26
2019-03-26T06:37:58.104Z,83.25
2019-03-26T06:39:02.335Z,83.12
2019-03-26T06:40:06.572Z,83.00
2019-03-26T06:41:10.799Z,82.98
2019-03-26T06:42:15.026Z,82.95
2019-03-26T06:43:19.246Z,82.94
2019-03-26T06:44:23.463Z,82.98
2019-03-26T06:45:27.686Z,82.97
2019-03-26T06:46:31.921Z,82.96
2019-03-26T06:47:36.110Z,82.94
2019-03-26T06:48:40.336Z,82.63
2019-03-26T06:49:44.643Z,82.72
2019-03-26T06:50:48.728Z,82.75
2019-03-26T06:51:53.119Z,82.64
2019-03-26T06:52:57.310Z,82.39
2019-03-26T06:54:01.561Z,82.36
2019-03-26T06:55:05.897Z,82.29
2019-03-26T06:56:10.063Z,82.31
2019-03-26T06:57:14.273Z,82.42
2019-03-26T06:58:18.530Z,81.95
2019-03-26T06:59:25.753Z,82.02
2019-03-26T07:00:29.089Z,81.58
2019-03-26T07:01:33.309Z,81.75
2019-03-26T07:02:37.433Z,81.48
2019-03-26T07:03:41.705Z,81.79
2019-03-26T07:04:45.931Z,81.54
2019-03-26T07:05:50.195Z,80.97
2019-03-26T07:06:54.427Z,81.02
2019-03-26T07:07:58.708Z,81.33
2019-03-26T07:09:02.836Z,81.32
2019-03-26T07:10:07.127Z,80.72
2019-03-26T07:11:11.370Z,80.72
2019-03-26T07:12:15.583Z,80.75
2019-03-26T07:13:19.827Z,80.85
2019-03-26T07:14:24.071Z,80.73
2019-03-26T07:15:28.300Z,80.61
2019-03-26T07:16:32.531Z,80.84
2019-03-26T07:17:36.759Z,80.79
2019-03-26T07:18:40.921Z,80.67
2019-03-26T07:19:45.195Z,80.38
2019-03-26T07:20:49.431Z,80.19
2019-03-26T07:21:53.697Z,80.32
2019-03-26T07:22:57.894Z,80.54
2019-03-26T07:24:02.075Z,80.73
2019-03-26T07:25:06.462Z,80.82
2019-03-26T07:26:10.637Z,80.79
2019-03-26T07:27:14.844Z,80.46
2019-03-26T07:28:19.111Z,80.77
2019-03-26T07:29:23.350Z,80.84
2019-03-26T07:30:27.497Z,81.00
2019-03-26T07:31:31.767Z,80.88
2019-03-26T07:32:35.896Z,80.80
2019-03-26T07:33:40.165Z,80.86
2019-03-26T07:34:44.395Z,81.13
2019-03-26T07:35:48.616Z,81.11
2019-03-26T07:36:52.883Z,81.02
2019-03-26T07:37:57.076Z,81.09
2019-03-26T07:39:01.357Z,80.95
2019-03-26T07:40:05.475Z,80.80
2019-03-26T07:41:09.805Z,80.95
2019-03-26T07:42:14.059Z,81.17
2019-03-26T07:43:18.185Z,81.03
2019-03-26T07:44:22.524Z,81.14
2019-03-26T07:45:26.756Z,81.06
2019-03-26T07:46:30.995Z,80.60
2019-03-26T07:47:35.241Z,80.26
2019-03-26T07:48:39.395Z,79.90
2019-03-26T07:49:43.728Z,79.25
2019-03-26T07:50:47.875Z,79.66
2019-03-26T07:51:52.202Z,78.94
2019-03-26T07:52:56.488Z,79.29
2019-03-26T07:54:00.615Z,78.36
2019-03-26T07:55:04.841Z,78.40
2019-03-26T07:56:09.039Z,78.48
2019-03-26T07:57:13.231Z,78.83
2019-03-26T07:58:17.526Z,79.13
2019-03-26T07:59:21.764Z,78.81
2019-03-26T08:00:25.994Z,78.70
2019-03-26T08:01:30.250Z,78.20
2019-03-26T08:02:34.449Z,77.38
2019-03-26T08:03:38.724Z,78.06
2019-03-26T08:04:43.012Z,78.30
2019-03-26T08:05:47.283Z,78.52
2019-03-26T08:06:51.536Z,78.46
2019-03-26T08:07:58.518Z,77.53
2019-03-26T08:08:59.901Z,78.18
2019-03-26T08:10:04.098Z,77.94
2019-03-26T08:11:08.432Z,77.33
2019-03-26T08:12:12.661Z,76.93
2019-03-26T08:13:16.837Z,77.07
2019-03-26T08:14:21.076Z,77.60
2019-03-26T08:15:25.260Z,76.35
2019-03-26T08:16:29.541Z,75.67
2019-03-26T08:17:33.812Z,75.95
2019-03-26T08:18:38.051Z,76.26
2019-03-26T08:19:42.317Z,76.36
2019-03-26T08:20:46.502Z,75.65
2019-03-26T08:21:50.713Z,75.76
2019-03-26T08:22:54.906Z,76.14
2019-03-26T08:23:59.086Z,75.17
2019-03-26T08:25:03.692Z,75.43
2019-03-26T08:26:07.709Z,75.34
2019-03-26T08:27:11.994Z,74.82
2019-03-26T08:28:16.262Z,74.97
2019-03-26T08:29:20.522Z,75.11
2019-03-26T08:30:24.730Z,74.20
2019-03-26T08:31:29.110Z,73.50
2019-03-26T08:32:33.307Z,72.77
2019-03-26T08:33:37.480Z,73.27
2019-03-26T08:34:41.763Z,74.13
2019-03-26T08:35:46.071Z,73.76
2019-03-26T08:36:50.178Z,74.33
2019-03-26T08:37:54.490Z,73.85
2019-03-26T08:38:58.746Z,72.48
2019-03-26T08:40:02.987Z,72.15
2019-03-26T08:41:07.152Z,72.65
2019-03-26T08:42:11.354Z,72.88
2019-03-26T08:43:15.658Z,73.06
2019-03-26T08:44:19.921Z,73.47
2019-03-26T08:45:24.073Z,74.05
2019-03-26T08:46:28.380Z,74.18
2019-03-26T08:47:32.603Z,74.47
2019-03-26T08:48:36.862Z,75.18
2019-03-26T08:49:41.125Z,75.55
2019-03-26T08:50:45.273Z,75.30
2019-03-26T08:51:49.495Z,75.89
2019-03-26T08:52:53.757Z,76.07
2019-03-26T08:53:57.977Z,76.17
2019-03-26T08:55:04.345Z,76.72
2019-03-26T08:56:06.578Z,76.66
2019-03-26T08:57:10.878Z,76.97
2019-03-26T08:58:14.911Z,77.85
2019-03-26T08:59:19.234Z,78.25
2019-03-26T09:00:23.504Z,77.69
2019-03-26T09:01:27.724Z,77.99
2019-03-26T09:02:31.880Z,78.08
2019-03-26T09:03:36.170Z,78.13
2019-03-26T09:04:40.431Z,78.33
2019-03-26T09:05:44.677Z,77.88
2019-03-26T09:06:48.824Z,77.73
2019-03-26T09:07:53.145Z,77.39
2019-03-26T09:08:57.392Z,76.71
2019-03-26T09:10:01.603Z,76.22
2019-03-26T09:11:05.839Z,76.08
2019-03-26T09:12:10.013Z,76.04
2019-03-26T09:13:14.220Z,75.48
2019-03-26T09:14:18.576Z,74.24
2019-03-26T09:15:22.700Z,74.66
2019-03-26T09:16:26.910Z,74.50
2019-03-26T09:17:31.104Z,73.86
2019-03-26T09:18:35.292Z,73.50
2019-03-26T09:19:39.530Z,74.02
2019-03-26T09:20:43.758Z,74.32
2019-03-26T09:21:48.074Z,74.07
2019-03-26T09:22:52.281Z,72.71
2019-03-26T09:23:56.422Z,73.51
2019-03-26T09:25:00.680Z,73.43
2019-03-26T09:26:04.864Z,73.46
2019-03-26T09:27:09.039Z,73.28
2019-03-26T09:28:13.221Z,73.61
2019-03-26T09:29:17.405Z,73.02
2019-03-26T09:30:21.628Z,73.35
2019-03-26T09:31:25.836Z,72.38
2019-03-26T09:32:29.993Z,72.92
2019-03-26T09:33:34.198Z,72.38
2019-03-26T09:34:38.521Z,73.04
2019-03-26T09:35:42.859Z,72.35
2019-03-26T09:36:46.938Z,72.35
2019-03-26T09:37:51.267Z,72.63
2019-03-26T09:38:55.397Z,72.60
2019-03-26T09:39:59.683Z,73.00
2019-03-26T09:41:03.856Z,73.00
2019-03-26T09:42:08.164Z,72.81
2019-03-26T09:43:12.447Z,72.92
2019-03-26T09:44:16.586Z,73.53
2019-03-26T09:45:20.884Z,73.94
2019-03-26T09:46:25.143Z,73.88
2019-03-26T09:47:29.425Z,73.55
2019-03-26T09:48:33.674Z,73.83
2019-03-26T09:49:37.947Z,73.33
2019-03-26T09:50:42.192Z,71.86
2019-03-26T09:51:46.393Z,72.37
2019-03-26T09:52:50.618Z,72.57
2019-03-26T09:53:54.780Z,72.33
2019-03-26T09:54:59.119Z,72.26
2019-03-26T09:56:03.296Z,72.50
2019-03-26T09:57:07.504Z,72.03
2019-03-26T09:58:11.731Z,71.30
2019-03-26T09:59:15.939Z,71.58
2019-03-26T10:00:20.319Z,71.83
2019-03-26T10:01:24.535Z,72.74
2019-03-26T10:02:28.656Z,72.89
2019-03-26T10:03:32.962Z,72.78
2019-03-26T10:04:37.195Z,71.42
2019-03-26T10:05:41.441Z,71.61
2019-03-26T10:06:45.644Z,71.70
2019-03-26T10:07:49.854Z,71.50
2019-03-26T10:08:54.111Z,71.72
2019-03-26T10:09:58.342Z,71.05
2019-03-26T10:11:02.501Z,71.64
2019-03-26T10:12:06.804Z,71.59
2019-03-26T10:13:10.948Z,71.29
2019-03-26T10:14:15.295Z,71.31
2019-03-26T10:15:19.530Z,71.05
2019-03-26T10:16:23.715Z,71.13
2019-03-26T10:17:27.919Z,71.91
2019-03-26T10:18:32.142Z,72.79
2019-03-26T10:19:36.422Z,72.28
2019-03-26T10:20:40.622Z,72.48
2019-03-26T10:21:44.936Z,72.76
2019-03-26T10:22:49.065Z,72.93
2019-03-26T10:23:53.269Z,73.13
2019-03-26T10:24:57.492Z,73.40
2019-03-26T10:26:01.751Z,73.29
2019-03-26T10:27:05.930Z,73.13
2019-03-26T10:28:10.240Z,73.16
2019-03-26T10:29:29.167Z,72.77
2019-03-26T10:30:18.792Z,72.47
2019-03-26T10:31:23.029Z,72.36
2019-03-26T10:32:27.234Z,71.97
2019-03-26T10:33:31.432Z,72.01
2019-03-26T10:34:36.700Z,71.72
2019-03-26T10:35:39.945Z,71.61
2019-03-26T10:36:44.314Z,70.61
2019-03-26T10:37:48.433Z,70.44
2019-03-26T10:39:05.076Z,70.05
2019-03-26T10:39:56.956Z,70.22
2019-03-26T10:41:01.201Z,69.97
2019-03-26T10:42:07.001Z,70.14
2019-03-26T10:43:09.733Z,70.24
2019-03-26T10:44:13.967Z,70.07
2019-03-26T10:45:18.152Z,70.25
2019-03-26T10:46:22.402Z,70.60
2019-03-26T10:47:26.665Z,70.25
2019-03-26T10:48:31.951Z,70.01
2019-03-26T10:49:35.177Z,68.92
2019-03-26T10:50:39.304Z,69.20
2019-03-26T10:51:43.651Z,68.01
2019-03-26T10:52:47.784Z,67.81
2019-03-26T10:53:52.005Z,68.15
2019-03-26T10:54:56.165Z,67.78
2019-03-26T10:56:03.370Z,67.91
2019-03-26T10:57:06.711Z,67.99
2019-03-26T10:58:10.866Z,68.70
2019-03-26T10:59:15.153Z,67.86
2019-03-26T11:00:19.285Z,67.43
2019-03-26T11:01:23.514Z,66.66
2019-03-26T11:02:27.833Z,65.81
2019-03-26T11:03:32.007Z,66.78
2019-03-26T11:04:36.189Z,66.36
2019-03-26T11:05:40.533Z,66.53
2019-03-26T11:06:44.835Z,67.00
2019-03-26T11:07:49.064Z,67.15
2019-03-26T11:08:53.300Z,66.70
2019-03-26T11:09:57.547Z,66.68
2019-03-26T11:11:01.724Z,66.51
2019-03-26T11:12:05.970Z,66.69
2019-03-26T11:13:10.359Z,66.75
2019-03-26T11:14:14.579Z,66.81
2019-03-26T11:15:18.832Z,66.29
2019-03-26T11:16:23.102Z,66.33
2019-03-26T11:17:27.344Z,66.50
2019-03-26T11:18:31.585Z,65.91
2019-03-26T11:19:35.850Z,65.40
2019-03-26T11:20:40.118Z,66.53
2019-03-26T11:21:44.422Z,66.19
2019-03-26T11:22:48.679Z,64.86
2019-03-26T11:23:52.951Z,64.30
2019-03-26T11:24:57.228Z,64.13
2019-03-26T11:26:01.372Z,64.50
2019-03-26T11:27:05.678Z,64.42
2019-03-26T11:28:09.979Z,64.94
2019-03-26T11:29:14.264Z,65.36
2019-03-26T11:30:18.559Z,64.90
2019-03-26T11:31:22.840Z,64.54
2019-03-26T11:32:27.102Z,64.92
2019-03-26T11:33:31.367Z,64.02
2019-03-26T11:34:35.647Z,64.42
2019-03-26T11:35:39.930Z,64.25
2019-03-26T11:36:47.188Z,62.49
2019-03-26T11:37:50.458Z,62.77
2019-03-26T11:38:54.758Z,63.93
2019-03-26T11:39:58.918Z,64.43
2019-03-26T11:41:03.220Z,64.38
2019-03-26T11:42:07.494Z,64.30
2019-03-26T11:43:11.797Z,64.34
2019-03-26T11:44:16.077Z,64.71
2019-03-26T11:45:20.301Z,64.44
2019-03-26T11:46:24.487Z,64.33
2019-03-26T11:47:28.832Z,64.67
2019-03-26T11:48:33.047Z,64.09
2019-03-26T11:49:37.312Z,64.36
2019-03-26T11:50:41.546Z,63.80
2019-03-26T11:51:45.778Z,63.85
2019-03-26T11:52:50.097Z,63.54
2019-03-26T11:53:54.355Z,64.01
2019-03-26T11:54:58.592Z,64.16
2019-03-26T11:56:02.891Z,64.31
2019-03-26T11:57:07.170Z,64.33
2019-03-26T11:58:11.412Z,64.00
2019-03-26T11:59:15.643Z,64.63
2019-03-26T12:00:19.908Z,64.78
2019-03-26T12:01:24.179Z,64.99
2019-03-26T12:02:28.531Z,65.28
2019-03-26T12:03:32.735Z,64.80
2019-03-26T12:04:37.016Z,63.30
2019-03-26T12:05:41.218Z,64.03
2019-03-26T12:06:48.450Z,63.66
2019-03-26T12:07:51.836Z,63.96
2019-03-26T12:08:56.098Z,64.38
2019-03-26T12:10:00.387Z,64.25
2019-03-26T12:11:04.632Z,64.15
2019-03-26T12:12:08.922Z,63.59
2019-03-26T12:13:13.213Z,64.29
2019-03-26T12:14:17.474Z,64.08
2019-03-26T12:15:21.753Z,64.09
2019-03-26T12:16:26.016Z,64.29
2019-03-26T12:17:30.271Z,64.61
2019-03-26T12:18:34.448Z,64.89
2019-03-26T12:19:38.885Z,64.61
2019-03-26T12:20:42.960Z,65.27
2019-03-26T12:21:47.288Z,64.77
2019-03-26T12:22:51.565Z,64.45
2019-03-26T12:23:55.807Z,64.01
2019-03-26T12:25:00.340Z,64.28
2019-03-26T12:26:04.307Z,64.38
2019-03-26T12:27:08.595Z,63.86
2019-03-26T12:28:12.864Z,63.36
2019-03-26T12:29:17.112Z,63.78
2019-03-26T12:30:21.364Z,63.87
2019-03-26T12:31:25.639Z,64.19
2019-03-26T12:32:29.942Z,64.25
2019-03-26T12:33:34.202Z,63.92
2019-03-26T12:34:38.466Z,63.53
2019-03-26T12:35:42.714Z,62.05
2019-03-26T12:36:46.954Z,62.16
2019-03-26T12:37:51.194Z,62.34
2019-03-26T12:38:55.444Z,62.51
2019-03-26T12:40:00.797Z,61.76
2019-03-26T12:41:04.040Z,62.15
2019-03-26T12:42:08.199Z,61.03
2019-03-26T12:43:12.536Z,61.75
2019-03-26T12:44:16.798Z,61.23
2019-03-26T12:45:21.037Z,61.84
2019-03-26T12:46:25.297Z,62.29
2019-03-26T12:47:29.596Z,62.16
2019-03-26T12:48:33.858Z,61.60
2019-03-26T12:49:38.035Z,60.96
2019-03-26T12:50:42.264Z,61.27
2019-03-26T12:51:46.591Z,61.94
2019-03-26T12:52:50.882Z,62.27
2019-03-26T12:53:55.132Z,62.79
2019-03-26T12:54:59.394Z,63.20
2019-03-26T12:56:03.696Z,63.08
2019-03-26T12:57:08.029Z,62.63
2019-03-26T12:58:12.282Z,61.16
2019-03-26T12:59:16.440Z,61.48
2019-03-26T13:00:20.756Z,60.95
2019-03-26T13:01:25.050Z,60.51
2019-03-26T13:02:29.319Z,60.77
2019-03-26T13:03:33.612Z,60.33
2019-03-26T13:04:37.844Z,61.01
2019-03-26T13:05:42.097Z,60.88
2019-03-26T13:06:46.410Z,61.36
2019-03-26T13:07:50.657Z,61.75
2019-03-26T13:08:54.932Z,61.67
2019-03-26T13:10:07.880Z,61.59
2019-03-26T13:11:03.438Z,61.51
2019-03-26T13:12:07.705Z,61.88
2019-03-26T13:13:11.975Z,61.58
2019-03-26T13:14:16.231Z,62.12
2019-03-26T13:15:20.527Z,62.40
2019-03-26T13:16:24.790Z,62.83
2019-03-26T13:17:29.043Z,61.96
2019-03-26T13:18:33.198Z,61.72
2019-03-26T13:19:37.558Z,60.24
2019-03-26T13:20:41.761Z,60.50
2019-03-26T13:21:46.029Z,60.37
2019-03-26T13:22:50.400Z,61.41
2019-03-26T13:23:54.580Z,61.22
2019-03-26T13:24:58.720Z,61.49
2019-03-26T13:26:03.028Z,61.38
2019-03-26T13:27:07.278Z,61.09
2019-03-26T13:28:11.556Z,61.57
2019-03-26T13:29:15.809Z,61.95
2019-03-26T13:30:20.061Z,61.56
2019-03-26T13:31:24.340Z,61.30
2019-03-26T13:32:28.592Z,61.50
2019-03-26T13:33:32.897Z,61.98
2019-03-26T13:34:37.051Z,61.94
2019-03-26T13:35:41.386Z,61.80
2019-03-26T13:36:45.634Z,60.88
2019-03-26T13:37:49.934Z,61.59
2019-03-26T13:38:54.125Z,61.31
2019-03-26T13:39:58.456Z,61.50
2019-03-26T13:41:02.782Z,61.94
2019-03-26T13:42:07.044Z,61.89
2019-03-26T13:43:11.290Z,61.71
2019-03-26T13:44:15.568Z,60.79
2019-03-26T13:45:19.840Z,60.86
2019-03-26T13:46:24.103Z,60.79
2019-03-26T13:47:28.358Z,60.33